createdAt,value
2022-11-05T00:01:44.889Z,5.83
2022-11-05T00:04:35.525Z,5.13
2022-11-05T00:07:26.000Z,5.10
2022-11-05T00:09:57.161Z,7.97
2022-11-05T00:12:42.836Z,5.70
2022-11-05T00:15:29.861Z,5.30
2022-11-05T00:17:58.128Z,8.53
2022-11-05T00:20:26.290Z,6.40
2022-11-05T00:23:15.162Z,7.07
2022-11-05T00:25:43.138Z,8.83
2022-11-05T00:28:11.150Z,8.43
2022-11-05T00:30:40.551Z,5.57
2022-11-05T00:33:08.804Z,5.37
2022-11-05T00:35:37.827Z,5.10
2022-11-05T00:38:05.841Z,8.50
2022-11-05T00:40:33.801Z,5.00
2022-11-05T00:43:19.069Z,7.10
2022-11-05T00:45:48.577Z,5.90
2022-11-05T00:48:36.493Z,9.50
2022-11-05T00:51:04.798Z,7.63
2022-11-05T00:53:33.209Z,6.30
2022-11-05T00:56:01.993Z,7.50
2022-11-05T00:58:30.142Z,11.20
2022-11-05T01:01:01.085Z,5.80
2022-11-05T01:03:31.157Z,5.77
2022-11-05T01:06:06.582Z,6.87
2022-11-05T01:08:34.665Z,5.40
2022-11-05T01:11:10.196Z,6.07
2022-11-05T01:13:39.103Z,7.90
2022-11-05T01:16:10.947Z,6.63
2022-11-05T01:18:40.092Z,11.03
2022-11-05T01:21:12.154Z,5.43
2022-11-05T01:23:40.197Z,5.50
2022-11-05T01:26:08.241Z,4.77
2022-11-05T01:28:36.331Z,5.60
2022-11-05T01:31:07.568Z,5.97
2022-11-05T01:33:38.252Z,5.27
2022-11-05T01:36:06.826Z,5.27
2022-11-05T01:38:34.901Z,7.67
2022-11-05T01:41:05.466Z,9.37
2022-11-05T01:43:47.346Z,11.53
2022-11-05T01:46:17.194Z,6.33
2022-11-05T01:48:49.449Z,8.43
2022-11-05T01:51:21.101Z,7.13
2022-11-05T01:53:53.949Z,6.43
2022-11-05T01:56:25.760Z,10.10
2022-11-05T01:58:57.831Z,6.90
2022-11-05T02:01:25.953Z,3.93
2022-11-05T02:04:00.567Z,9.60
2022-11-05T02:06:29.997Z,8.00
2022-11-05T02:09:02.846Z,8.10
2022-11-05T02:11:31.085Z,5.40
2022-11-05T02:13:59.074Z,6.20
2022-11-05T02:16:37.732Z,11.57
2022-11-05T02:19:24.209Z,3.83
2022-11-05T02:22:40.034Z,2.70
2022-11-05T02:25:41.826Z,4.47
2022-11-05T02:28:28.293Z,7.03
2022-11-05T02:31:03.101Z,4.23
2022-11-05T02:33:39.796Z,4.80
2022-11-05T02:36:32.316Z,4.30
2022-11-05T02:39:13.069Z,4.80
2022-11-05T02:41:49.190Z,4.50
2022-11-05T02:44:28.298Z,8.40
2022-11-05T02:47:04.714Z,6.97
2022-11-05T02:49:41.585Z,4.73
2022-11-05T02:52:17.035Z,3.83
2022-11-05T02:54:51.929Z,3.23
2022-11-05T02:57:21.905Z,7.57
2022-11-05T02:59:50.015Z,4.33
2022-11-05T03:02:19.510Z,5.00
2022-11-05T03:04:47.766Z,2.83
2022-11-05T03:07:32.158Z,7.40
2022-11-05T03:10:16.323Z,4.53
2022-11-05T03:12:53.183Z,8.17
2022-11-05T03:15:30.374Z,3.77
2022-11-05T03:18:08.525Z,8.63
2022-11-05T03:20:43.429Z,5.53
2022-11-05T03:23:20.183Z,5.60
2022-11-05T03:25:52.639Z,3.67
2022-11-05T03:28:25.419Z,4.87
2022-11-05T03:30:55.916Z,5.80
2022-11-05T03:33:30.489Z,6.30
2022-11-05T03:36:02.681Z,6.27
2022-11-05T03:38:34.937Z,4.40
2022-11-05T03:41:07.634Z,5.37
2022-11-05T03:43:38.549Z,6.63
2022-11-05T03:46:10.312Z,5.30
2022-11-05T03:48:42.699Z,6.23
2022-11-05T03:51:17.535Z,6.93
2022-11-05T03:53:49.201Z,4.10
2022-11-05T03:56:21.868Z,8.17
2022-11-05T03:58:54.667Z,11.87
2022-11-05T04:01:26.391Z,4.00
2022-11-05T04:03:55.897Z,5.20
2022-11-05T04:06:41.498Z,5.83
2022-11-05T04:09:28.871Z,5.10
2022-11-05T04:12:14.422Z,4.30
2022-11-05T04:14:44.179Z,6.93
2022-11-05T04:17:11.394Z,4.57
2022-11-05T04:19:59.919Z,6.67
2022-11-05T04:22:47.453Z,5.40
2022-11-05T04:25:17.268Z,4.90
2022-11-05T04:27:45.339Z,6.57
2022-11-05T04:30:19.736Z,5.63
2022-11-05T04:32:58.693Z,7.43
2022-11-05T04:35:28.866Z,7.33
2022-11-05T04:37:57.252Z,8.27
2022-11-05T04:40:25.457Z,3.90
2022-11-05T04:42:55.206Z,10.33
2022-11-05T04:45:23.696Z,4.67
2022-11-05T04:47:51.738Z,4.50
2022-11-05T04:50:22.118Z,5.90
2022-11-05T04:52:51.529Z,8.43
2022-11-05T04:55:21.162Z,4.97
2022-11-05T04:57:50.733Z,6.60
2022-11-05T05:00:19.520Z,12.40
2022-11-05T05:02:47.771Z,9.50
2022-11-05T05:05:16.001Z,7.07
2022-11-05T05:07:44.205Z,3.90
2022-11-05T05:10:14.010Z,5.97
2022-11-05T05:12:42.069Z,5.80
2022-11-05T05:15:10.386Z,4.40
2022-11-05T05:17:38.507Z,6.03
2022-11-05T05:20:24.418Z,12.53
2022-11-05T05:22:53.939Z,5.07
2022-11-05T05:25:24.081Z,8.97
2022-11-05T05:27:52.181Z,9.23
2022-11-05T05:30:20.284Z,6.60
2022-11-05T05:32:48.286Z,6.50
2022-11-05T05:35:16.560Z,8.47
2022-11-05T05:37:47.284Z,9.03
2022-11-05T05:40:15.511Z,9.73
2022-11-05T05:42:44.868Z,6.03
2022-11-05T05:45:13.473Z,9.30
2022-11-05T05:47:41.634Z,4.37
2022-11-05T05:50:09.772Z,4.73
2022-11-05T05:52:37.788Z,5.57
2022-11-05T05:55:06.371Z,5.13
2022-11-05T05:57:35.304Z,4.60
2022-11-05T06:00:05.989Z,6.93
2022-11-05T06:02:34.098Z,7.27
2022-11-05T06:05:02.285Z,8.53
2022-11-05T06:07:35.958Z,6.30
2022-11-05T06:10:05.916Z,11.37
2022-11-05T06:12:34.108Z,8.20
2022-11-05T06:15:02.119Z,6.83
2022-11-05T06:17:31.568Z,20.50
2022-11-05T06:19:59.537Z,8.27
2022-11-05T06:22:27.501Z,10.93
2022-11-05T06:24:55.584Z,12.23
2022-11-05T06:27:23.596Z,12.63
2022-11-05T06:29:51.814Z,14.07
2022-11-05T06:32:19.822Z,10.63
2022-11-05T06:34:49.241Z,13.97
2022-11-05T06:37:17.441Z,10.00
2022-11-05T06:39:45.532Z,15.40
2022-11-05T06:42:20.569Z,14.00
2022-11-05T06:44:48.537Z,12.93
2022-11-05T06:47:16.802Z,16.70
2022-11-05T06:49:44.873Z,13.17
2022-11-05T06:52:15.360Z,12.27
2022-11-05T06:54:44.169Z,13.50
2022-11-05T06:57:13.354Z,13.10
2022-11-05T06:59:41.580Z,12.00
2022-11-05T07:02:13.742Z,13.53
2022-11-05T07:04:42.069Z,14.03
2022-11-05T07:07:10.066Z,16.33
2022-11-05T07:09:42.950Z,19.00
2022-11-05T07:12:11.146Z,13.40
2022-11-05T07:14:39.321Z,19.97
2022-11-05T07:17:07.367Z,15.70
2022-11-05T07:19:35.551Z,18.73
2022-11-05T07:22:03.569Z,24.67
2022-11-05T07:24:31.570Z,12.60
2022-11-05T07:27:00.909Z,14.13
2022-11-05T07:29:28.982Z,26.17
2022-11-05T07:31:57.047Z,20.03
2022-11-05T07:34:25.013Z,18.47
2022-11-05T07:36:53.096Z,17.23
2022-11-05T07:39:21.191Z,18.83
2022-11-05T07:41:49.289Z,18.87
2022-11-05T07:44:18.684Z,15.70
2022-11-05T07:46:46.728Z,15.03
2022-11-05T07:49:15.150Z,16.70
2022-11-05T07:51:43.105Z,16.93
2022-11-05T07:54:11.498Z,19.10
2022-11-05T07:56:39.473Z,16.40
2022-11-05T07:59:07.668Z,15.90
2022-11-05T08:01:37.255Z,18.03
2022-11-05T08:04:05.691Z,18.70
2022-11-05T08:06:33.789Z,17.03
2022-11-05T08:09:01.797Z,20.93
2022-11-05T08:11:29.889Z,22.10
2022-11-05T08:13:58.141Z,14.57
2022-11-05T08:16:26.258Z,17.03
2022-11-05T08:18:55.663Z,13.40
2022-11-05T08:21:23.692Z,13.30
2022-11-05T08:23:51.854Z,18.27
2022-11-05T08:26:20.599Z,11.60
2022-11-05T08:28:48.593Z,11.00
2022-11-05T08:31:18.124Z,12.70
2022-11-05T08:33:46.105Z,12.43
2022-11-05T08:36:15.528Z,14.60
2022-11-05T08:38:43.532Z,13.27
2022-11-05T08:41:11.963Z,17.93
2022-11-05T08:43:40.446Z,14.27
2022-11-05T08:46:08.554Z,13.40
2022-11-05T08:48:36.610Z,15.00
2022-11-05T08:51:04.816Z,9.73
2022-11-05T08:53:34.138Z,16.43
2022-11-05T08:56:02.066Z,13.03
2022-11-05T08:58:30.019Z,17.27
2022-11-05T09:01:04.504Z,14.77
2022-11-05T09:03:33.088Z,12.97
2022-11-05T09:06:01.088Z,14.07
2022-11-05T09:08:29.054Z,11.80
2022-11-05T09:10:58.381Z,14.90
2022-11-05T09:13:26.959Z,21.37
2022-11-05T09:15:55.329Z,13.33
2022-11-05T09:18:23.421Z,19.27
2022-11-05T09:20:51.447Z,19.00
2022-11-05T09:23:19.640Z,21.67
2022-11-05T09:25:47.904Z,19.33
2022-11-05T09:28:19.982Z,17.97
2022-11-05T09:30:50.918Z,16.20
2022-11-05T09:33:21.298Z,15.03
2022-11-05T09:35:49.356Z,14.87
2022-11-05T09:38:17.377Z,17.90
2022-11-05T09:40:58.579Z,19.73
2022-11-05T09:43:33.574Z,16.20
2022-11-05T09:46:07.409Z,19.40
2022-11-05T09:48:36.345Z,13.50
2022-11-05T09:51:06.499Z,12.93
2022-11-05T09:53:41.469Z,22.20
2022-11-05T09:56:20.134Z,13.33
2022-11-05T09:58:53.382Z,15.00
2022-11-05T10:01:24.946Z,15.80
2022-11-05T10:03:57.490Z,16.50
2022-11-05T10:06:28.253Z,15.40
2022-11-05T10:09:03.953Z,17.37
2022-11-05T10:11:38.217Z,14.27
2022-11-05T10:14:15.578Z,13.13
2022-11-05T10:16:49.168Z,12.43
2022-11-05T10:19:24.357Z,17.07
2022-11-05T10:22:11.727Z,15.90
2022-11-05T10:24:42.678Z,10.40
2022-11-05T10:27:16.443Z,9.57
2022-11-05T10:29:46.932Z,11.37
2022-11-05T10:32:24.857Z,10.33
2022-11-05T10:34:55.150Z,10.77
2022-11-05T10:37:25.453Z,14.63
2022-11-05T10:39:54.048Z,13.47
2022-11-05T10:42:46.361Z,10.00
2022-11-05T10:45:26.633Z,8.43
2022-11-05T10:48:06.734Z,11.47
2022-11-05T10:50:35.311Z,11.33
2022-11-05T10:53:08.426Z,11.57
2022-11-05T10:55:38.553Z,11.30
2022-11-05T10:58:12.465Z,11.53
2022-11-05T11:00:43.554Z,12.80
2022-11-05T11:03:38.540Z,10.10
2022-11-05T11:06:14.130Z,13.67
2022-11-05T11:08:46.463Z,12.43
2022-11-05T11:11:28.308Z,10.23
2022-11-05T11:14:06.451Z,11.47
2022-11-05T11:16:39.623Z,10.30
2022-11-05T11:19:26.491Z,9.80
2022-11-05T11:22:14.264Z,15.87
2022-11-05T11:24:43.971Z,14.80
2022-11-05T11:27:15.774Z,15.07
2022-11-05T11:29:49.741Z,13.63
2022-11-05T11:32:22.820Z,10.20
2022-11-05T11:34:54.021Z,12.87
2022-11-05T11:37:26.755Z,11.00
2022-11-05T11:39:58.098Z,8.13
2022-11-05T11:42:31.689Z,7.67
2022-11-05T11:45:02.868Z,9.17
2022-11-05T11:47:33.788Z,14.63
2022-11-05T11:50:03.190Z,9.40
2022-11-05T11:52:33.188Z,13.17
2022-11-05T11:55:21.259Z,14.17
2022-11-05T11:57:51.343Z,8.97
2022-11-05T12:00:24.061Z,12.60
2022-11-05T12:03:04.444Z,11.37
2022-11-05T12:05:41.767Z,7.87
2022-11-05T12:08:36.919Z,6.67
2022-11-05T12:11:09.738Z,7.13
2022-11-05T12:14:04.427Z,9.50
2022-11-05T12:16:55.442Z,11.77
2022-11-05T12:19:37.714Z,12.70
2022-11-05T12:22:14.984Z,25.73
2022-11-05T12:25:05.520Z,9.77
2022-11-05T12:27:45.372Z,12.57
2022-11-05T12:30:16.748Z,11.53
2022-11-05T12:33:21.475Z,12.20
2022-11-05T12:36:03.549Z,7.43
2022-11-05T12:38:57.215Z,8.97
2022-11-05T12:41:28.913Z,8.93
2022-11-05T12:44:10.957Z,7.13
2022-11-05T12:46:47.137Z,11.13
2022-11-05T12:49:37.085Z,5.73
2022-11-05T12:52:22.945Z,10.90
2022-11-05T12:55:01.032Z,10.10
2022-11-05T12:57:30.846Z,5.33
2022-11-05T13:00:06.529Z,12.33
2022-11-05T13:02:41.745Z,16.17
2022-11-05T13:05:16.467Z,5.77
2022-11-05T13:07:53.913Z,6.27
2022-11-05T13:10:28.382Z,8.13
2022-11-05T13:13:02.159Z,5.63
2022-11-05T13:15:35.981Z,8.63
2022-11-05T13:18:07.468Z,8.10
2022-11-05T13:20:40.675Z,8.40
2022-11-05T13:23:19.977Z,6.87
2022-11-05T13:25:52.656Z,8.73
2022-11-05T13:28:32.665Z,12.50
2022-11-05T13:31:03.336Z,8.57
2022-11-05T13:33:34.956Z,5.80
2022-11-05T13:36:29.501Z,5.73
2022-11-05T13:39:07.181Z,8.30
2022-11-05T13:41:49.361Z,9.57
2022-11-05T13:44:45.079Z,6.60
2022-11-05T13:47:27.006Z,10.20
2022-11-05T13:50:21.589Z,11.53
2022-11-05T13:53:10.396Z,11.40
2022-11-05T13:55:53.342Z,7.07
2022-11-05T13:58:43.381Z,8.17
2022-11-05T14:01:19.067Z,7.33
2022-11-05T14:03:48.843Z,6.97
2022-11-05T14:06:25.544Z,9.10
2022-11-05T14:08:57.634Z,20.60
2022-11-05T14:11:30.246Z,14.00
2022-11-05T14:14:00.643Z,7.87
2022-11-05T14:16:41.296Z,30.70
2022-11-05T14:19:35.886Z,27.27
2022-11-05T14:22:38.902Z,14.93
2022-11-05T14:25:44.630Z,13.30
2022-11-05T14:28:42.553Z,13.40
2022-11-05T14:31:54.554Z,16.17
2022-11-05T14:34:40.157Z,9.50
2022-11-05T14:37:26.383Z,14.30
2022-11-05T14:39:55.763Z,19.70
2022-11-05T14:42:27.330Z,21.57
2022-11-05T14:45:05.817Z,27.50
2022-11-05T14:47:36.874Z,27.43
2022-11-05T14:50:11.547Z,28.40
2022-11-05T14:52:41.439Z,24.23
2022-11-05T14:55:27.972Z,25.80
2022-11-05T14:58:24.896Z,19.40
2022-11-05T15:00:55.116Z,15.70
2022-11-05T15:03:32.592Z,14.30
2022-11-05T15:06:29.435Z,12.73
2022-11-05T15:09:29.910Z,11.43
2022-11-05T15:12:13.648Z,10.97
2022-11-05T15:14:57.118Z,6.93
2022-11-05T15:17:30.151Z,10.03
2022-11-05T15:20:08.976Z,10.53
2022-11-05T15:22:44.789Z,15.07
2022-11-05T15:25:21.813Z,19.30
2022-11-05T15:28:03.029Z,26.37
2022-11-05T15:30:31.479Z,28.80
2022-11-05T15:33:17.761Z,25.30
2022-11-05T15:35:45.926Z,27.33
2022-11-05T15:38:31.459Z,22.20
2022-11-05T15:41:03.845Z,27.73
2022-11-05T15:43:32.042Z,32.53
2022-11-05T15:46:05.688Z,34.97
2022-11-05T15:48:36.904Z,31.13
2022-11-05T15:51:05.135Z,23.87
2022-11-05T15:53:51.522Z,37.07
2022-11-05T15:56:28.228Z,28.63
2022-11-05T15:59:00.986Z,37.30
2022-11-05T16:01:31.599Z,28.40
2022-11-05T16:04:09.506Z,26.97
2022-11-05T16:06:40.725Z,48.63
2022-11-05T16:09:20.465Z,61.80
2022-11-05T16:11:48.577Z,58.97
2022-11-05T16:14:18.693Z,49.40
2022-11-05T16:16:47.795Z,36.23
2022-11-05T16:19:42.379Z,21.63
2022-11-05T16:22:10.308Z,27.47
2022-11-05T16:24:40.064Z,26.97
2022-11-05T16:27:18.121Z,19.10
2022-11-05T16:29:53.452Z,14.50
2022-11-05T16:32:29.837Z,16.40
2022-11-05T16:35:02.559Z,24.43
2022-11-05T16:37:37.562Z,19.27
2022-11-05T16:40:14.363Z,12.20
2022-11-05T16:42:43.284Z,13.17
2022-11-05T16:45:13.949Z,15.30
2022-11-05T16:47:42.258Z,13.87
2022-11-05T16:50:32.404Z,18.47
2022-11-05T16:53:00.435Z,19.40
2022-11-05T16:55:28.514Z,13.50
2022-11-05T16:57:56.920Z,18.30
2022-11-05T17:00:26.346Z,24.13
2022-11-05T17:02:55.449Z,22.37
2022-11-05T17:05:26.526Z,23.00
2022-11-05T17:07:56.485Z,15.40
2022-11-05T17:10:25.965Z,18.00
2022-11-05T17:12:54.608Z,17.33
2022-11-05T17:15:25.445Z,19.50
2022-11-05T17:17:54.838Z,20.07
2022-11-05T17:20:39.928Z,19.23
2022-11-05T17:23:11.736Z,20.23
2022-11-05T17:25:40.905Z,17.67
2022-11-05T17:28:10.416Z,19.10
2022-11-05T17:30:41.413Z,11.87
2022-11-05T17:33:11.167Z,10.87
2022-11-05T17:35:40.418Z,17.67
2022-11-05T17:38:10.281Z,12.67
2022-11-05T17:40:39.540Z,14.30
2022-11-05T17:43:07.766Z,19.93
2022-11-05T17:45:35.886Z,13.47
2022-11-05T17:48:04.979Z,20.03
2022-11-05T17:50:32.978Z,18.03
2022-11-05T17:53:00.973Z,18.50
2022-11-05T17:55:30.406Z,15.50
2022-11-05T17:57:58.688Z,21.77
2022-11-05T18:00:26.826Z,16.23
2022-11-05T18:02:55.653Z,18.40
2022-11-05T18:05:27.738Z,17.90
2022-11-05T18:07:59.400Z,16.13
2022-11-05T18:10:28.281Z,17.90
2022-11-05T18:12:58.011Z,26.40
2022-11-05T18:15:27.918Z,21.60
2022-11-05T18:17:55.958Z,25.20
2022-11-05T18:20:24.190Z,21.70
2022-11-05T18:22:52.538Z,26.20
2022-11-05T18:25:20.739Z,35.00
2022-11-05T18:27:48.661Z,39.63
2022-11-05T18:30:18.243Z,34.80
2022-11-05T18:32:46.489Z,31.07
2022-11-05T18:35:14.826Z,39.97
2022-11-05T18:37:43.393Z,63.90
2022-11-05T18:40:12.863Z,57.80
2022-11-05T18:42:41.426Z,80.67
2022-11-05T18:45:10.901Z,56.93
2022-11-05T18:47:40.244Z,45.50
2022-11-05T18:50:10.544Z,62.93
2022-11-05T18:52:38.802Z,59.17
2022-11-05T18:55:08.105Z,56.40
2022-11-05T18:57:36.136Z,32.80
2022-11-05T19:00:05.487Z,44.80
2022-11-05T19:02:34.069Z,47.93
2022-11-05T19:07:51.694Z,41.80
2022-11-05T19:10:20.113Z,29.10
2022-11-05T19:12:48.254Z,23.30
2022-11-05T19:15:16.463Z,20.30
2022-11-05T19:17:44.598Z,20.33
2022-11-05T19:20:14.401Z,25.13
2022-11-05T19:22:43.442Z,27.20
2022-11-05T19:25:11.761Z,20.70
2022-11-05T19:27:41.034Z,17.63
2022-11-05T19:30:10.167Z,16.93
2022-11-05T19:32:38.202Z,17.87
2022-11-05T19:35:06.680Z,20.00
2022-11-05T19:37:36.100Z,16.80
2022-11-05T19:40:04.326Z,17.60
2022-11-05T19:42:32.305Z,18.27
2022-11-05T19:45:16.792Z,19.07
2022-11-05T19:47:48.238Z,18.30
2022-11-05T19:50:16.367Z,20.73
2022-11-05T19:52:45.750Z,14.23
2022-11-05T19:55:13.834Z,16.87
2022-11-05T19:57:41.808Z,21.33
2022-11-05T20:00:10.933Z,17.73
2022-11-05T20:02:39.128Z,18.97
2022-11-05T20:05:07.397Z,16.73
2022-11-05T20:07:35.535Z,16.90
2022-11-05T20:10:05.487Z,20.10
2022-11-05T20:12:34.369Z,19.10
2022-11-05T20:15:02.475Z,17.33
2022-11-05T20:17:31.077Z,22.30
2022-11-05T20:19:59.248Z,30.33
2022-11-05T20:22:27.990Z,17.93
2022-11-05T20:24:55.968Z,16.67
2022-11-05T20:27:25.319Z,19.90
2022-11-05T20:29:53.318Z,14.70
2022-11-05T20:32:21.329Z,18.47
2022-11-05T20:34:49.279Z,18.23
2022-11-05T20:37:17.282Z,19.27
2022-11-05T20:39:46.296Z,19.80
2022-11-05T20:42:14.534Z,16.93
2022-11-05T20:44:44.001Z,18.80
2022-11-05T20:47:12.104Z,22.90
2022-11-05T20:49:40.111Z,17.23
2022-11-05T20:52:08.126Z,19.17
2022-11-05T20:54:36.102Z,16.80
2022-11-05T20:57:04.158Z,15.70
2022-11-05T20:59:32.233Z,17.83
2022-11-05T21:02:02.835Z,15.20
2022-11-05T21:04:31.160Z,20.50
2022-11-05T21:06:59.210Z,16.23
2022-11-05T21:09:27.305Z,20.40
2022-11-05T21:12:14.212Z,21.73
2022-11-05T21:14:44.401Z,17.10
2022-11-05T21:17:14.343Z,19.33
2022-11-05T21:19:42.386Z,19.53
2022-11-05T21:22:10.409Z,23.10
2022-11-05T21:24:38.424Z,18.53
2022-11-05T21:27:06.421Z,18.47
2022-11-05T21:29:34.430Z,18.23
2022-11-05T21:32:02.529Z,16.67
2022-11-05T21:34:31.893Z,21.83
2022-11-05T21:37:00.035Z,19.20
2022-11-05T21:39:28.946Z,14.13
2022-11-05T21:41:57.274Z,12.93
2022-11-05T21:44:25.244Z,14.43
2022-11-05T21:46:56.453Z,17.27
2022-11-05T21:49:24.770Z,16.13
2022-11-05T21:52:11.893Z,20.83
2022-11-05T21:54:57.635Z,18.37
2022-11-05T21:57:43.200Z,15.47
2022-11-05T22:00:12.757Z,17.13
2022-11-05T22:02:41.050Z,16.10
2022-11-05T22:05:09.814Z,21.37
2022-11-05T22:07:40.678Z,15.67
2022-11-05T22:10:15.818Z,17.30
2022-11-05T22:12:45.079Z,19.00
2022-11-05T22:15:13.621Z,17.80
2022-11-05T22:17:46.454Z,20.07
2022-11-05T22:20:15.900Z,18.77
2022-11-05T22:22:45.687Z,22.77
2022-11-05T22:25:14.697Z,18.30
2022-11-05T22:27:43.798Z,17.33
2022-11-05T22:30:13.327Z,14.60
2022-11-05T22:32:41.338Z,18.10
2022-11-05T22:35:10.140Z,22.07
2022-11-05T22:37:38.238Z,21.87
2022-11-05T22:40:09.560Z,28.90
2022-11-05T22:42:37.893Z,32.33
2022-11-05T22:45:07.056Z,22.50
2022-11-05T22:47:35.124Z,22.43
2022-11-05T22:50:03.275Z,26.40
2022-11-05T22:52:31.253Z,22.47
2022-11-05T22:54:59.221Z,31.50
2022-11-05T22:57:28.648Z,29.43
2022-11-05T22:59:56.710Z,66.20
2022-11-05T23:02:24.982Z,28.30
2022-11-05T23:04:53.217Z,22.90
2022-11-05T23:07:38.638Z,19.70
2022-11-05T23:10:25.081Z,20.50
2022-11-05T23:12:56.315Z,21.43
2022-11-05T23:15:42.250Z,23.40
2022-11-05T23:18:28.494Z,19.47
2022-11-05T23:21:14.713Z,22.60
2022-11-05T23:24:01.571Z,26.63
2022-11-05T23:26:46.969Z,20.57
2022-11-05T23:29:16.430Z,24.27
2022-11-05T23:32:01.638Z,29.03
2022-11-05T23:34:29.629Z,34.57
2022-11-05T23:37:14.996Z,21.73
2022-11-05T23:39:43.141Z,32.60
2022-11-05T23:42:29.479Z,28.63
2022-11-05T23:45:16.538Z,41.07
2022-11-05T23:48:02.401Z,42.53
2022-11-05T23:50:35.557Z,55.37
2022-11-05T23:53:07.850Z,52.63
2022-11-05T23:55:36.098Z,47.47
2022-11-05T23:58:04.335Z,81.23
